Flower, West Virginia
Current Conditions -  °F | °C
As of 3:55 PM on Tuesday 27 Jan 2015 (Local Time) from KW22 Reporting Station
Light Snow Light Snow  
Wind Chill:   Ceiling: 1800
Heat Index: 19°   Visibility: 4mi
Dew Point: 16°   Wind: 8mph
Humidity: 86%   Direction: 320°NW
Pressure: 29.95"   Gusts: 14mph
Location:  38.837°N, 80.8415°W
Report Text: KW22 272055Z AUTO 32007G12KT 4SM -SN FEW001 SCT013 BKN018 M07/M09 A2995 RMK AO2
Loading
Personal Weather Stations






























Interactive Weather Map New forecast layout! Learn more

10-Day Weather Forecast

Advertisements
Track Severe Weather on mobile